createdAt,value
2019-04-26T00:00:53.096Z,17.90
2019-04-26T00:03:24.167Z,17.90
2019-04-26T00:05:53.942Z,17.80
2019-04-26T00:08:23.349Z,17.80
2019-04-26T00:11:00.324Z,17.80
2019-04-26T00:13:37.294Z,17.80
2019-04-26T00:16:12.581Z,17.90
2019-04-26T00:19:02.273Z,17.90
2019-04-26T00:21:32.061Z,17.90
2019-04-26T00:24:01.735Z,17.80
2019-04-26T00:26:31.408Z,17.70
2019-04-26T00:29:01.230Z,17.70
2019-04-26T00:31:30.772Z,17.70
2019-04-26T00:34:00.647Z,17.70
2019-04-26T00:36:30.296Z,17.60
2019-04-26T00:38:59.767Z,17.60
2019-04-26T00:41:29.314Z,17.60
2019-04-26T00:43:58.831Z,17.60
2019-04-26T00:46:28.696Z,17.60
2019-04-26T00:48:58.140Z,17.50
2019-04-26T00:51:27.682Z,17.40
2019-04-26T00:53:57.051Z,17.20
2019-04-26T00:56:26.677Z,17.00
2019-04-26T00:58:56.203Z,16.80
2019-04-26T01:01:27.140Z,16.60
2019-04-26T01:03:56.411Z,16.60
2019-04-26T01:06:27.536Z,16.70
2019-04-26T01:08:56.967Z,16.80
2019-04-26T01:11:26.604Z,16.90
2019-04-26T01:13:55.969Z,16.80
2019-04-26T01:16:26.350Z,16.60
2019-04-26T01:18:56.791Z,16.50
2019-04-26T01:21:26.867Z,16.30
2019-04-26T01:23:56.289Z,16.20
2019-04-26T01:26:28.960Z,16.10
2019-04-26T01:29:01.549Z,16.10
2019-04-26T01:31:32.172Z,16.00
2019-04-26T01:36:48.703Z,15.90
2019-04-26T01:39:19.723Z,15.80
2019-04-26T01:41:51.904Z,15.70
2019-04-26T01:44:26.597Z,15.60
2019-04-26T01:46:56.367Z,15.60
2019-04-26T01:49:26.208Z,15.50
2019-04-26T01:52:04.352Z,15.40
2019-04-26T01:54:37.090Z,15.30
2019-04-26T01:57:06.744Z,15.00
2019-04-26T01:59:36.921Z,14.90
2019-04-26T02:02:26.158Z,14.80
2019-04-26T02:04:57.064Z,14.60
2019-04-26T02:07:41.556Z,14.40
2019-04-26T02:10:23.367Z,14.30
2019-04-26T02:12:52.337Z,14.30
2019-04-26T02:15:24.450Z,14.20
2019-04-26T02:17:57.880Z,14.10
2019-04-26T02:20:48.776Z,14.10
2019-04-26T02:23:26.377Z,14.00
2019-04-26T02:25:56.138Z,14.00
2019-04-26T02:28:26.788Z,13.90
2019-04-26T02:30:56.366Z,13.80
2019-04-26T02:33:27.508Z,13.70
2019-04-26T02:35:57.220Z,13.60
2019-04-26T02:38:27.861Z,13.60
2019-04-26T02:40:57.852Z,13.50
2019-04-26T02:43:28.616Z,13.50
2019-04-26T02:45:59.882Z,13.30
2019-04-26T02:48:36.549Z,13.30
2019-04-26T02:51:18.702Z,13.20
2019-04-26T02:53:54.075Z,13.20
2019-04-26T02:56:25.806Z,13.10
2019-04-26T02:59:01.659Z,13.00
2019-04-26T03:01:32.390Z,13.00
2019-04-26T03:04:02.018Z,12.90
2019-04-26T03:06:33.884Z,12.80
2019-04-26T03:09:03.349Z,12.70
2019-04-26T03:11:39.086Z,12.70
2019-04-26T03:14:10.156Z,12.70
2019-04-26T03:16:52.350Z,12.70
2019-04-26T03:19:45.092Z,12.70
2019-04-26T03:22:46.824Z,12.70
2019-04-26T03:25:42.091Z,12.70
2019-04-26T03:28:20.352Z,12.70
2019-04-26T03:31:14.190Z,12.60
2019-04-26T03:34:14.356Z,12.60
2019-04-26T03:37:20.103Z,12.60
2019-04-26T03:39:56.457Z,12.60
2019-04-26T03:42:36.519Z,12.60
2019-04-26T03:45:27.155Z,12.60
2019-04-26T03:48:08.881Z,12.50
2019-04-26T03:50:47.587Z,12.40
2019-04-26T03:53:23.162Z,12.40
2019-04-26T03:56:01.072Z,12.30
2019-04-26T03:59:01.857Z,12.30
2019-04-26T04:01:32.854Z,12.20
2019-04-26T04:07:13.294Z,12.20
2019-04-26T04:09:51.895Z,12.10
2019-04-26T04:12:30.283Z,12.00
2019-04-26T04:15:15.122Z,12.00
2019-04-26T04:17:50.175Z,12.00
2019-04-26T04:20:48.489Z,11.90
2019-04-26T04:23:26.832Z,11.70
2019-04-26T04:25:56.098Z,11.70
2019-04-26T04:28:34.801Z,11.60
2019-04-26T04:31:07.184Z,11.50
2019-04-26T04:33:47.350Z,11.50
2019-04-26T04:36:20.710Z,11.30
2019-04-26T04:39:13.312Z,11.20
2019-04-26T04:41:57.326Z,11.20
2019-04-26T04:44:42.368Z,11.10
2019-04-26T04:47:25.686Z,11.00
2019-04-26T04:50:12.689Z,10.90
2019-04-26T04:52:52.159Z,11.00
2019-04-26T04:55:42.841Z,10.90
2019-04-26T04:58:20.449Z,11.00
2019-04-26T05:01:33.834Z,11.00
2019-04-26T05:04:19.942Z,11.00
2019-04-26T05:07:18.070Z,11.10
2019-04-26T05:09:59.941Z,11.20
2019-04-26T05:12:38.430Z,11.10
2019-04-26T05:15:15.144Z,11.00
2019-04-26T05:17:56.602Z,10.80
2019-04-26T05:20:34.916Z,10.90
2019-04-26T05:23:14.530Z,10.90
2019-04-26T05:26:09.430Z,10.80
2019-04-26T05:29:06.745Z,10.80
2019-04-26T05:31:49.608Z,10.80
2019-04-26T05:34:40.347Z,10.90
2019-04-26T05:37:30.026Z,10.90
2019-04-26T05:40:17.921Z,10.90
2019-04-26T05:43:26.490Z,10.90
2019-04-26T05:46:06.989Z,10.80
2019-04-26T05:48:41.141Z,11.00
2019-04-26T05:51:45.518Z,11.10
2019-04-26T05:54:54.466Z,11.20
2019-04-26T05:57:43.018Z,11.20
2019-04-26T06:00:29.046Z,11.20
2019-04-26T06:03:45.442Z,11.20
2019-04-26T06:06:25.429Z,11.30
2019-04-26T06:09:11.910Z,11.40
2019-04-26T06:11:48.706Z,11.40
2019-04-26T06:14:34.617Z,11.30
2019-04-26T06:17:20.918Z,11.40
2019-04-26T06:20:23.064Z,11.50
2019-04-26T06:23:11.662Z,11.50
2019-04-26T06:25:57.617Z,11.40
2019-04-26T06:28:31.929Z,11.60
2019-04-26T06:31:04.489Z,11.70
2019-04-26T06:33:48.817Z,11.70
2019-04-26T06:36:19.733Z,11.60
2019-04-26T06:39:21.722Z,11.60
2019-04-26T06:42:12.056Z,11.70
2019-04-26T06:44:56.279Z,11.80
2019-04-26T06:48:03.998Z,11.80
2019-04-26T06:50:40.564Z,11.90
2019-04-26T06:53:39.401Z,12.00
2019-04-26T06:56:31.126Z,12.10
2019-04-26T06:59:17.191Z,12.10
2019-04-26T07:02:01.540Z,12.20
2019-04-26T07:04:55.180Z,12.40
2019-04-26T07:07:37.753Z,12.60
2019-04-26T07:10:20.938Z,12.70
2019-04-26T07:13:19.133Z,12.70
2019-04-26T07:15:53.947Z,12.80
2019-04-26T07:18:32.310Z,13.00
2019-04-26T07:21:39.849Z,13.20
2019-04-26T07:24:41.847Z,13.40
2019-04-26T07:27:17.607Z,13.70
2019-04-26T07:30:09.968Z,14.00
2019-04-26T07:32:45.677Z,14.20
2019-04-26T07:35:37.860Z,14.10
2019-04-26T07:38:53.145Z,13.80
2019-04-26T07:41:51.371Z,14.00
2019-04-26T07:44:56.730Z,14.40
2019-04-26T07:47:38.248Z,14.80
2019-04-26T07:50:14.196Z,15.30
2019-04-26T07:53:04.905Z,15.50
2019-04-26T07:59:50.701Z,15.40
2019-04-26T08:02:38.415Z,15.20
2019-04-26T08:05:16.597Z,14.90
2019-04-26T08:07:47.739Z,14.70
2019-04-26T08:10:20.086Z,14.80
2019-04-26T08:13:06.027Z,15.00
2019-04-26T08:16:06.385Z,15.00
2019-04-26T08:18:44.674Z,15.00
2019-04-26T08:21:26.496Z,15.20
2019-04-26T08:23:57.836Z,15.40
2019-04-26T08:26:27.479Z,15.60
2019-04-26T08:29:00.659Z,15.70
2019-04-26T08:31:28.526Z,15.70
2019-04-26T08:33:59.902Z,15.70
2019-04-26T08:36:31.071Z,16.00
2019-04-26T08:39:01.055Z,15.70
2019-04-26T08:41:35.254Z,15.50
2019-04-26T08:44:07.179Z,15.30
2019-04-26T08:46:38.797Z,15.30
2019-04-26T08:49:23.901Z,15.00
2019-04-26T08:51:55.945Z,14.90
2019-04-26T08:54:25.798Z,14.70
2019-04-26T08:56:58.537Z,14.40
2019-04-26T08:59:31.150Z,14.40
2019-04-26T09:02:18.844Z,14.50
2019-04-26T09:05:06.349Z,14.60
2019-04-26T09:07:36.545Z,14.70
2019-04-26T09:10:11.328Z,14.70
2019-04-26T09:12:39.149Z,14.60
2019-04-26T09:15:11.556Z,14.40
2019-04-26T09:17:41.271Z,14.10
2019-04-26T09:20:11.658Z,13.90
2019-04-26T09:22:48.678Z,13.70
2019-04-26T09:25:22.541Z,13.80
2019-04-26T09:27:55.154Z,13.70
2019-04-26T09:30:38.520Z,13.60
2019-04-26T09:33:10.610Z,13.60
2019-04-26T09:35:39.967Z,13.80
2019-04-26T09:38:09.519Z,14.00
2019-04-26T09:40:38.989Z,14.10
2019-04-26T09:43:16.778Z,14.40
2019-04-26T09:46:02.983Z,14.50
2019-04-26T09:48:37.117Z,14.50
2019-04-26T09:51:08.288Z,14.40
2019-04-26T09:53:39.445Z,14.40
2019-04-26T09:56:08.514Z,14.30
2019-04-26T09:58:37.950Z,14.00
2019-04-26T10:01:08.489Z,13.90
2019-04-26T10:03:37.922Z,14.20
2019-04-26T10:06:08.272Z,14.30
2019-04-26T10:08:37.642Z,14.50
2019-04-26T10:11:09.550Z,14.50
2019-04-26T10:13:44.230Z,14.50
2019-04-26T10:16:18.362Z,14.60
2019-04-26T10:18:50.238Z,14.60
2019-04-26T10:21:19.742Z,14.40
2019-04-26T10:23:49.070Z,14.40
2019-04-26T10:26:18.421Z,14.30
2019-04-26T10:28:50.628Z,14.30
2019-04-26T10:31:18.937Z,14.60
2019-04-26T10:33:48.313Z,14.80
2019-04-26T10:36:17.914Z,14.90
2019-04-26T10:38:47.319Z,14.70
2019-04-26T10:41:17.334Z,14.50
2019-04-26T10:43:46.687Z,13.90
2019-04-26T10:46:15.937Z,13.50
2019-04-26T10:48:49.708Z,13.40
2019-04-26T10:51:18.457Z,13.20
2019-04-26T10:53:55.454Z,12.90
2019-04-26T10:56:41.314Z,12.80
2019-04-26T10:59:15.279Z,12.60
2019-04-26T11:01:46.025Z,12.40
2019-04-26T11:04:15.398Z,12.10
2019-04-26T11:06:44.974Z,11.80
2019-04-26T11:09:14.534Z,11.90
2019-04-26T11:11:43.987Z,11.60
2019-04-26T11:14:13.349Z,11.40
2019-04-26T11:16:42.765Z,11.30
2019-04-26T11:19:11.997Z,11.30
2019-04-26T11:21:41.341Z,11.10
2019-04-26T11:24:10.915Z,10.90
2019-04-26T11:26:40.523Z,10.90
2019-04-26T11:29:09.830Z,10.90
2019-04-26T11:31:39.210Z,10.80
2019-04-26T11:34:08.473Z,10.70
2019-04-26T11:36:41.695Z,10.60
2019-04-26T11:39:11.126Z,10.40
2019-04-26T11:41:41.556Z,10.30
2019-04-26T11:44:10.838Z,10.10
2019-04-26T11:46:45.019Z,10.10
2019-04-26T11:49:11.127Z,10.00
2019-04-26T11:51:40.810Z,10.00
2019-04-26T11:54:10.154Z,9.80
2019-04-26T11:56:39.510Z,9.70
2019-04-26T11:59:08.902Z,9.70
2019-04-26T12:01:40.556Z,9.60
2019-04-26T12:04:19.813Z,9.50
2019-04-26T12:06:50.803Z,9.40
2019-04-26T12:09:24.534Z,9.30
2019-04-26T12:12:03.952Z,9.30
2019-04-26T12:14:24.858Z,9.30
2019-04-26T12:16:58.874Z,9.30
2019-04-26T12:19:26.187Z,9.30
2019-04-26T12:21:55.526Z,9.40
2019-04-26T12:24:29.558Z,9.40
2019-04-26T12:26:57.592Z,9.50
2019-04-26T12:29:27.223Z,9.50
2019-04-26T12:31:56.581Z,9.60
2019-04-26T12:34:25.922Z,9.60
2019-04-26T12:36:55.347Z,9.50
2019-04-26T12:39:25.181Z,9.50
2019-04-26T12:41:54.539Z,9.50
2019-04-26T12:44:25.801Z,9.30
2019-04-26T12:47:03.665Z,9.20
2019-04-26T12:49:30.582Z,9.10
2019-04-26T12:51:59.952Z,9.00
2019-04-26T12:54:29.593Z,9.10
2019-04-26T12:57:05.732Z,9.20
2019-04-26T12:59:44.089Z,9.40
2019-04-26T13:02:06.127Z,9.50
2019-04-26T13:04:36.586Z,9.60
2019-04-26T13:07:22.750Z,9.60
2019-04-26T13:09:43.630Z,9.70
2019-04-26T13:12:17.453Z,9.60
2019-04-26T13:14:48.433Z,9.50
2019-04-26T13:17:31.290Z,9.40
2019-04-26T13:19:59.553Z,9.30
2019-04-26T13:22:29.110Z,9.30
2019-04-26T13:24:59.826Z,9.30
2019-04-26T13:27:29.409Z,9.10
2019-04-26T13:30:02.339Z,8.80
2019-04-26T13:32:29.990Z,8.60
2019-04-26T13:34:59.802Z,8.50
2019-04-26T13:37:32.169Z,8.40
2019-04-26T13:40:01.410Z,8.20
2019-04-26T13:42:32.599Z,8.20
2019-04-26T13:45:19.869Z,8.20
2019-04-26T13:48:07.505Z,8.30
2019-04-26T13:50:41.478Z,8.00
2019-04-26T13:53:11.251Z,7.90
2019-04-26T13:55:40.666Z,7.90
2019-04-26T13:58:10.001Z,7.90
2019-04-26T14:00:39.681Z,7.90
2019-04-26T14:03:11.346Z,8.00
2019-04-26T14:05:41.026Z,8.10
2019-04-26T14:08:10.361Z,8.10
2019-04-26T14:10:39.701Z,8.20
2019-04-26T14:13:09.438Z,8.30
2019-04-26T14:15:39.458Z,8.40
2019-04-26T14:18:09.881Z,8.30
2019-04-26T14:20:39.158Z,8.20
2019-04-26T14:23:19.345Z,8.20
2019-04-26T14:25:55.520Z,8.10
2019-04-26T14:28:25.284Z,8.10
2019-04-26T14:30:55.650Z,7.90
2019-04-26T14:33:27.077Z,7.90
2019-04-26T14:35:57.465Z,7.90
2019-04-26T14:38:28.120Z,7.80
2019-04-26T14:41:04.276Z,7.70
2019-04-26T14:43:39.933Z,7.70
2019-04-26T14:45:59.932Z,7.80
2019-04-26T14:48:35.721Z,7.80
2019-04-26T14:51:07.774Z,7.80
2019-04-26T14:53:32.271Z,7.80
2019-04-26T14:56:02.206Z,7.80
2019-04-26T14:58:33.301Z,7.90
2019-04-26T15:01:03.984Z,8.00
2019-04-26T15:03:57.139Z,8.00
2019-04-26T15:06:24.412Z,8.00
2019-04-26T15:08:53.666Z,8.00
2019-04-26T15:11:23.314Z,8.10
2019-04-26T15:13:53.634Z,8.00
2019-04-26T15:16:24.461Z,7.90
2019-04-26T15:18:53.941Z,7.70
2019-04-26T15:21:23.209Z,7.70
2019-04-26T15:23:55.419Z,7.60
2019-04-26T15:26:29.633Z,7.50
2019-04-26T15:28:54.908Z,7.50
2019-04-26T15:31:24.992Z,7.50
2019-04-26T15:33:55.009Z,7.50
2019-04-26T15:36:24.461Z,7.50
2019-04-26T15:38:53.978Z,7.60
2019-04-26T15:41:33.946Z,7.60
2019-04-26T15:44:07.586Z,7.50
2019-04-26T15:46:50.684Z,7.50
2019-04-26T15:49:26.128Z,7.40
2019-04-26T15:51:56.406Z,7.30
2019-04-26T15:54:27.049Z,7.30
2019-04-26T15:56:56.723Z,7.20
2019-04-26T15:59:26.430Z,7.10
2019-04-26T16:01:56.417Z,7.00
2019-04-26T16:04:27.913Z,7.10
2019-04-26T16:06:57.221Z,7.20
2019-04-26T16:09:26.670Z,7.20
2019-04-26T16:11:56.101Z,7.30
2019-04-26T16:14:31.472Z,7.30
2019-04-26T16:16:58.233Z,7.40
2019-04-26T16:19:29.095Z,7.40
2019-04-26T16:21:58.342Z,7.40
2019-04-26T16:24:28.923Z,7.40
2019-04-26T16:26:58.798Z,7.40
2019-04-26T16:29:32.444Z,7.50
2019-04-26T16:32:16.898Z,7.50
2019-04-26T16:34:48.856Z,7.50
2019-04-26T16:37:21.866Z,7.50
2019-04-26T16:39:49.522Z,7.60
2019-04-26T16:42:18.769Z,7.60
2019-04-26T16:44:48.121Z,7.70
2019-04-26T16:47:20.077Z,7.70
2019-04-26T16:49:49.350Z,7.70
2019-04-26T16:52:18.702Z,7.80
2019-04-26T16:54:48.367Z,7.90
2019-04-26T16:57:17.630Z,8.00
2019-04-26T16:59:54.054Z,8.00
2019-04-26T17:02:25.653Z,8.10
2019-04-26T17:04:49.665Z,8.20
2019-04-26T17:07:25.402Z,8.30
2019-04-26T17:09:57.688Z,8.40
2019-04-26T17:12:22.563Z,8.50
2019-04-26T17:14:52.600Z,8.50
2019-04-26T17:17:22.369Z,8.40
2019-04-26T17:19:52.243Z,8.30
2019-04-26T17:22:23.298Z,8.30
2019-04-26T17:25:05.949Z,8.30
2019-04-26T17:27:35.330Z,8.20
2019-04-26T17:30:08.250Z,8.20
2019-04-26T17:32:37.790Z,8.30
2019-04-26T17:35:07.713Z,8.30
2019-04-26T17:37:36.984Z,8.30
2019-04-26T17:40:06.339Z,8.30
2019-04-26T17:42:36.433Z,8.30
2019-04-26T17:45:07.213Z,8.30
2019-04-26T17:47:56.988Z,8.30
2019-04-26T17:50:26.413Z,8.30
2019-04-26T17:52:56.082Z,8.30
2019-04-26T17:55:25.519Z,8.30
2019-04-26T17:58:09.628Z,8.30
2019-04-26T18:00:28.701Z,8.30
2019-04-26T18:02:57.450Z,8.20
2019-04-26T18:05:41.732Z,8.20
2019-04-26T18:07:59.696Z,8.20
2019-04-26T18:10:28.453Z,8.20
2019-04-26T18:13:00.311Z,8.20
2019-04-26T18:15:29.526Z,8.20
2019-04-26T18:18:09.719Z,8.20
2019-04-26T18:20:58.409Z,8.10
2019-04-26T18:23:30.270Z,8.00
2019-04-26T18:25:58.621Z,8.00
2019-04-26T18:28:27.958Z,7.90
2019-04-26T18:30:57.273Z,7.80
2019-04-26T18:33:26.878Z,7.80
2019-04-26T18:35:57.562Z,7.70
2019-04-26T18:38:26.993Z,7.80
2019-04-26T18:41:00.576Z,7.70
2019-04-26T18:43:27.798Z,7.80
2019-04-26T18:46:02.833Z,7.70
2019-04-26T18:48:29.649Z,7.80
2019-04-26T18:50:58.897Z,7.80
2019-04-26T18:53:39.376Z,7.80
2019-04-26T18:56:08.682Z,7.80
2019-04-26T18:58:38.376Z,7.80
2019-04-26T19:01:09.262Z,7.80
2019-04-26T19:03:38.515Z,7.70
2019-04-26T19:06:07.844Z,7.70
2019-04-26T19:08:45.536Z,7.80
2019-04-26T19:11:11.809Z,7.80
2019-04-26T19:14:02.151Z,7.80
2019-04-26T19:16:36.141Z,7.80
2019-04-26T19:19:07.049Z,7.80
2019-04-26T19:21:40.280Z,7.90
2019-04-26T19:24:17.316Z,7.90
2019-04-26T19:26:44.125Z,7.90
2019-04-26T19:29:18.065Z,7.90
2019-04-26T19:31:42.989Z,7.90
2019-04-26T19:34:12.421Z,7.90
2019-04-26T19:36:42.134Z,7.90
2019-04-26T19:39:11.997Z,7.90
2019-04-26T19:41:43.085Z,7.90
2019-04-26T19:44:14.708Z,7.90
2019-04-26T19:46:45.233Z,7.90
2019-04-26T19:49:33.468Z,7.90
2019-04-26T19:52:22.052Z,7.90
2019-04-26T19:55:07.465Z,7.90
2019-04-26T19:57:39.185Z,7.90
2019-04-26T20:00:10.241Z,7.90
2019-04-26T20:02:41.854Z,7.90
2019-04-26T20:05:11.868Z,7.90
2019-04-26T20:07:41.764Z,7.90
2019-04-26T20:10:12.776Z,7.90
2019-04-26T20:12:42.261Z,7.90
2019-04-26T20:15:25.201Z,7.80
2019-04-26T20:17:42.753Z,7.80
2019-04-26T20:20:20.969Z,7.80
2019-04-26T20:22:43.170Z,7.80
2019-04-26T20:25:12.491Z,7.80
2019-04-26T20:27:41.833Z,7.80
2019-04-26T20:30:12.789Z,7.70
2019-04-26T20:32:44.666Z,7.70
2019-04-26T20:35:19.582Z,7.70
2019-04-26T20:37:49.845Z,7.70
2019-04-26T20:40:24.710Z,7.80
2019-04-26T20:42:53.290Z,7.80
2019-04-26T20:45:22.306Z,7.80
2019-04-26T20:47:55.483Z,7.90
2019-04-26T20:50:23.142Z,7.90
2019-04-26T20:52:53.981Z,7.90
2019-04-26T20:55:30.241Z,7.90
2019-04-26T20:57:54.739Z,7.90
2019-04-26T21:00:24.426Z,7.90
2019-04-26T21:03:01.086Z,7.90
2019-04-26T21:05:25.382Z,7.90
2019-04-26T21:07:55.094Z,8.00
2019-04-26T21:10:25.679Z,8.00
2019-04-26T21:12:55.385Z,8.00
2019-04-26T21:15:24.678Z,8.00
2019-04-26T21:17:56.747Z,8.00
2019-04-26T21:20:27.804Z,8.00
2019-04-26T21:22:57.736Z,8.00
2019-04-26T21:25:32.553Z,8.00
2019-04-26T21:28:08.176Z,8.00
2019-04-26T21:30:47.902Z,8.00
2019-04-26T21:33:28.725Z,8.00
2019-04-26T21:36:06.670Z,8.00
2019-04-26T21:38:53.043Z,8.00
2019-04-26T21:41:24.117Z,8.10
2019-04-26T21:43:53.489Z,8.10
2019-04-26T21:46:23.027Z,8.10
2019-04-26T21:48:53.380Z,8.20
2019-04-26T21:51:23.125Z,8.30
2019-04-26T21:53:53.007Z,8.30
2019-04-26T21:56:24.045Z,8.30
2019-04-26T21:58:53.442Z,8.30
2019-04-26T22:01:25.189Z,8.30
2019-04-26T22:03:58.306Z,8.20
2019-04-26T22:06:28.683Z,8.20
2019-04-26T22:09:17.042Z,8.20
2019-04-26T22:11:49.472Z,8.30
2019-04-26T22:14:21.333Z,8.30
2019-04-26T22:16:57.471Z,8.30
2019-04-26T22:19:27.973Z,8.30
2019-04-26T22:22:04.251Z,8.30
2019-04-26T22:24:38.077Z,8.30
2019-04-26T22:27:08.298Z,8.20
2019-04-26T22:29:37.682Z,8.20
2019-04-26T22:32:07.651Z,8.20
2019-04-26T22:34:41.382Z,8.20
2019-04-26T22:37:11.880Z,8.10
2019-04-26T22:39:41.264Z,8.10
2019-04-26T22:42:10.672Z,8.10
2019-04-26T22:44:43.486Z,8.10
2019-04-26T22:47:24.038Z,8.10
2019-04-26T22:49:53.674Z,8.20
2019-04-26T22:52:23.254Z,8.10
2019-04-26T22:54:53.860Z,8.10
2019-04-26T22:57:23.375Z,8.10
2019-04-26T22:59:53.495Z,8.10
2019-04-26T23:02:27.583Z,8.00
2019-04-26T23:04:55.934Z,8.00
2019-04-26T23:07:26.213Z,7.90
2019-04-26T23:09:56.133Z,7.90
2019-04-26T23:12:33.870Z,8.00
2019-04-26T23:15:23.975Z,7.90
2019-04-26T23:18:08.338Z,7.90
2019-04-26T23:20:39.824Z,7.90
2019-04-26T23:23:09.220Z,7.90
2019-04-26T23:25:38.974Z,8.00
2019-04-26T23:28:08.221Z,8.00
2019-04-26T23:30:37.486Z,8.10
2019-04-26T23:33:06.899Z,8.20
2019-04-26T23:35:43.635Z,8.30
2019-04-26T23:38:07.205Z,8.30
2019-04-26T23:40:36.582Z,8.40
2019-04-26T23:43:06.841Z,8.40
2019-04-26T23:45:36.422Z,8.40
2019-04-26T23:48:07.806Z,8.50
2019-04-26T23:50:36.637Z,8.50
2019-04-26T23:53:05.905Z,8.60
2019-04-26T23:55:38.103Z,8.40
2019-04-26T23:58:10.669Z,8.30
